sensor_id;sensor_type;location;lat;lon;timestamp;P1;durP1;ratioP1;P2;durP2;ratioP2
27313;SDS011;14800;48.174;9.798;2022-12-10T00:03:38;51.30;;;25.80;;
27313;SDS011;14800;48.174;9.798;2022-12-10T00:06:05;53.40;;;24.77;;
27313;SDS011;14800;48.174;9.798;2022-12-10T00:08:33;51.50;;;24.58;;
27313;SDS011;14800;48.174;9.798;2022-12-10T00:10:59;51.15;;;23.95;;
27313;SDS011;14800;48.174;9.798;2022-12-10T00:13:26;55.50;;;25.80;;
27313;SDS011;14800;48.174;9.798;2022-12-10T00:15:52;51.42;;;24.73;;
27313;SDS011;14800;48.174;9.798;2022-12-10T00:18:17;57.33;;;25.35;;
27313;SDS011;14800;48.174;9.798;2022-12-10T00:20:43;59.72;;;25.58;;
27313;SDS011;14800;48.174;9.798;2022-12-10T00:23:08;59.20;;;25.20;;
27313;SDS011;14800;48.174;9.798;2022-12-10T00:25:34;69.18;;;25.75;;
27313;SDS011;14800;48.174;9.798;2022-12-10T00:28:00;56.92;;;24.35;;
27313;SDS011;14800;48.174;9.798;2022-12-10T00:30:25;55.35;;;24.50;;
27313;SDS011;14800;48.174;9.798;2022-12-10T00:32:51;65.03;;;25.10;;
27313;SDS011;14800;48.174;9.798;2022-12-10T00:35:16;56.50;;;25.13;;
27313;SDS011;14800;48.174;9.798;2022-12-10T00:37:42;78.72;;;24.65;;
27313;SDS011;14800;48.174;9.798;2022-12-10T00:40:08;65.43;;;24.45;;
27313;SDS011;14800;48.174;9.798;2022-12-10T00:42:35;53.47;;;24.30;;
27313;SDS011;14800;48.174;9.798;2022-12-10T00:45:01;65.82;;;25.15;;
27313;SDS011;14800;48.174;9.798;2022-12-10T00:47:27;63.42;;;25.67;;
27313;SDS011;14800;48.174;9.798;2022-12-10T00:49:53;64.60;;;25.98;;
27313;SDS011;14800;48.174;9.798;2022-12-10T00:52:18;66.53;;;25.77;;
27313;SDS011;14800;48.174;9.798;2022-12-10T00:54:44;61.70;;;24.63;;
27313;SDS011;14800;48.174;9.798;2022-12-10T00:57:09;60.15;;;25.27;;
27313;SDS011;14800;48.174;9.798;2022-12-10T00:59:35;57.92;;;23.95;;
27313;SDS011;14800;48.174;9.798;2022-12-10T01:02:00;62.15;;;25.10;;
27313;SDS011;14800;48.174;9.798;2022-12-10T01:04:26;74.28;;;25.77;;
27313;SDS011;14800;48.174;9.798;2022-12-10T01:06:52;60.03;;;24.40;;
27313;SDS011;14800;48.174;9.798;2022-12-10T01:09:20;66.55;;;24.83;;
27313;SDS011;14800;48.174;9.798;2022-12-10T01:11:50;50.10;;;22.27;;
27313;SDS011;14800;48.174;9.798;2022-12-10T01:14:22;56.50;;;23.73;;
27313;SDS011;14800;48.174;9.798;2022-12-10T01:17:02;56.22;;;24.02;;
27313;SDS011;14800;48.174;9.798;2022-12-10T01:19:30;52.83;;;23.77;;
27313;SDS011;14800;48.174;9.798;2022-12-10T01:21:56;48.30;;;22.33;;
27313;SDS011;14800;48.174;9.798;2022-12-10T01:24:23;57.65;;;23.20;;
27313;SDS011;14800;48.174;9.798;2022-12-10T01:26:50;48.95;;;22.58;;
27313;SDS011;14800;48.174;9.798;2022-12-10T01:29:16;55.45;;;23.13;;
27313;SDS011;14800;48.174;9.798;2022-12-10T01:31:42;80.47;;;22.98;;
27313;SDS011;14800;48.174;9.798;2022-12-10T01:34:09;55.25;;;21.92;;
27313;SDS011;14800;48.174;9.798;2022-12-10T01:36:38;57.30;;;22.00;;
27313;SDS011;14800;48.174;9.798;2022-12-10T01:39:07;67.65;;;21.70;;
27313;SDS011;14800;48.174;9.798;2022-12-10T01:41:35;58.95;;;22.58;;
27313;SDS011;14800;48.174;9.798;2022-12-10T01:46:38;45.85;;;22.08;;
27313;SDS011;14800;48.174;9.798;2022-12-10T01:49:10;49.45;;;21.70;;
27313;SDS011;14800;48.174;9.798;2022-12-10T01:51:38;48.50;;;21.48;;
27313;SDS011;14800;48.174;9.798;2022-12-10T01:54:07;52.35;;;21.45;;
27313;SDS011;14800;48.174;9.798;2022-12-10T01:56:37;48.30;;;21.98;;
27313;SDS011;14800;48.174;9.798;2022-12-10T01:59:06;50.58;;;21.48;;
27313;SDS011;14800;48.174;9.798;2022-12-10T02:01:32;48.38;;;21.27;;
27313;SDS011;14800;48.174;9.798;2022-12-10T02:06:48;50.33;;;21.55;;
27313;SDS011;14800;48.174;9.798;2022-12-10T02:09:27;49.63;;;20.33;;
27313;SDS011;14800;48.174;9.798;2022-12-10T02:12:02;63.20;;;24.85;;
27313;SDS011;14800;48.174;9.798;2022-12-10T02:17:16;52.13;;;23.10;;
27313;SDS011;14800;48.174;9.798;2022-12-10T02:20:00;56.40;;;22.17;;
27313;SDS011;14800;48.174;9.798;2022-12-10T02:22:28;68.15;;;21.92;;
27313;SDS011;14800;48.174;9.798;2022-12-10T02:24:56;62.47;;;23.20;;
27313;SDS011;14800;48.174;9.798;2022-12-10T02:27:26;65.43;;;21.48;;
27313;SDS011;14800;48.174;9.798;2022-12-10T02:29:58;46.35;;;19.70;;
27313;SDS011;14800;48.174;9.798;2022-12-10T02:32:26;60.90;;;23.15;;
27313;SDS011;14800;48.174;9.798;2022-12-10T02:34:58;52.03;;;21.15;;
27313;SDS011;14800;48.174;9.798;2022-12-10T02:37:35;78.88;;;22.20;;
27313;SDS011;14800;48.174;9.798;2022-12-10T02:40:18;54.15;;;21.42;;
27313;SDS011;14800;48.174;9.798;2022-12-10T02:42:48;59.33;;;21.85;;
27313;SDS011;14800;48.174;9.798;2022-12-10T02:45:15;56.25;;;21.42;;
27313;SDS011;14800;48.174;9.798;2022-12-10T02:47:43;54.42;;;21.60;;
27313;SDS011;14800;48.174;9.798;2022-12-10T02:50:10;52.40;;;21.33;;
27313;SDS011;14800;48.174;9.798;2022-12-10T02:52:37;53.60;;;21.60;;
27313;SDS011;14800;48.174;9.798;2022-12-10T02:55:03;53.67;;;22.20;;
27313;SDS011;14800;48.174;9.798;2022-12-10T03:02:50;56.22;;;23.25;;
27313;SDS011;14800;48.174;9.798;2022-12-10T03:08:00;57.78;;;24.15;;
27313;SDS011;14800;48.174;9.798;2022-12-10T03:10:34;59.25;;;23.95;;
27313;SDS011;14800;48.174;9.798;2022-12-10T03:13:10;55.03;;;23.70;;
27313;SDS011;14800;48.174;9.798;2022-12-10T03:15:40;60.25;;;26.35;;
27313;SDS011;14800;48.174;9.798;2022-12-10T03:18:07;57.50;;;25.08;;
27313;SDS011;14800;48.174;9.798;2022-12-10T03:20:37;50.55;;;22.08;;
27313;SDS011;14800;48.174;9.798;2022-12-10T03:23:05;54.28;;;23.52;;
27313;SDS011;14800;48.174;9.798;2022-12-10T03:25:34;53.08;;;23.35;;
27313;SDS011;14800;48.174;9.798;2022-12-10T03:28:02;53.10;;;24.35;;
27313;SDS011;14800;48.174;9.798;2022-12-10T03:30:31;53.10;;;22.85;;
27313;SDS011;14800;48.174;9.798;2022-12-10T03:32:58;49.08;;;22.48;;
27313;SDS011;14800;48.174;9.798;2022-12-10T03:35:25;54.58;;;23.42;;
27313;SDS011;14800;48.174;9.798;2022-12-10T03:37:51;48.53;;;21.50;;
27313;SDS011;14800;48.174;9.798;2022-12-10T03:40:18;47.17;;;22.88;;
27313;SDS011;14800;48.174;9.798;2022-12-10T03:42:47;49.72;;;22.90;;
27313;SDS011;14800;48.174;9.798;2022-12-10T03:45:12;46.35;;;22.35;;
27313;SDS011;14800;48.174;9.798;2022-12-10T03:47:39;47.83;;;21.55;;
27313;SDS011;14800;48.174;9.798;2022-12-10T03:50:05;49.15;;;21.65;;
27313;SDS011;14800;48.174;9.798;2022-12-10T03:52:31;43.78;;;21.02;;
27313;SDS011;14800;48.174;9.798;2022-12-10T03:54:57;40.33;;;20.80;;
27313;SDS011;14800;48.174;9.798;2022-12-10T03:57:22;42.28;;;21.27;;
27313;SDS011;14800;48.174;9.798;2022-12-10T03:59:48;43.20;;;20.75;;
27313;SDS011;14800;48.174;9.798;2022-12-10T04:02:14;41.75;;;20.02;;
27313;SDS011;14800;48.174;9.798;2022-12-10T04:04:39;43.45;;;21.98;;
27313;SDS011;14800;48.174;9.798;2022-12-10T04:07:05;40.85;;;20.15;;
27313;SDS011;14800;48.174;9.798;2022-12-10T04:09:30;38.42;;;20.60;;
27313;SDS011;14800;48.174;9.798;2022-12-10T04:11:57;39.95;;;19.75;;
27313;SDS011;14800;48.174;9.798;2022-12-10T04:14:23;41.80;;;20.30;;
27313;SDS011;14800;48.174;9.798;2022-12-10T04:17:08;40.70;;;20.60;;
27313;SDS011;14800;48.174;9.798;2022-12-10T04:19:34;37.13;;;19.00;;
27313;SDS011;14800;48.174;9.798;2022-12-10T04:22:00;36.15;;;19.40;;
27313;SDS011;14800;48.174;9.798;2022-12-10T04:24:44;35.93;;;18.97;;
27313;SDS011;14800;48.174;9.798;2022-12-10T04:27:29;35.80;;;18.87;;
27313;SDS011;14800;48.174;9.798;2022-12-10T04:29:58;35.33;;;18.90;;
27313;SDS011;14800;48.174;9.798;2022-12-10T04:32:25;37.60;;;19.60;;
27313;SDS011;14800;48.174;9.798;2022-12-10T04:34:51;35.30;;;19.40;;
27313;SDS011;14800;48.174;9.798;2022-12-10T04:37:17;37.72;;;19.77;;
27313;SDS011;14800;48.174;9.798;2022-12-10T04:39:43;36.80;;;19.58;;
27313;SDS011;14800;48.174;9.798;2022-12-10T04:42:10;37.83;;;19.70;;
27313;SDS011;14800;48.174;9.798;2022-12-10T04:44:35;34.28;;;19.25;;
27313;SDS011;14800;48.174;9.798;2022-12-10T04:47:05;37.33;;;20.00;;
27313;SDS011;14800;48.174;9.798;2022-12-10T04:49:32;39.03;;;20.45;;
27313;SDS011;14800;48.174;9.798;2022-12-10T04:51:57;37.83;;;19.77;;
27313;SDS011;14800;48.174;9.798;2022-12-10T04:54:23;43.63;;;21.90;;
27313;SDS011;14800;48.174;9.798;2022-12-10T04:56:49;38.55;;;20.98;;
27313;SDS011;14800;48.174;9.798;2022-12-10T04:59:15;40.00;;;20.42;;
27313;SDS011;14800;48.174;9.798;2022-12-10T05:01:40;43.75;;;23.10;;
27313;SDS011;14800;48.174;9.798;2022-12-10T05:04:07;40.53;;;21.63;;
27313;SDS011;14800;48.174;9.798;2022-12-10T05:06:35;39.40;;;20.55;;
27313;SDS011;14800;48.174;9.798;2022-12-10T05:09:02;43.25;;;21.70;;
27313;SDS011;14800;48.174;9.798;2022-12-10T05:11:29;43.60;;;22.85;;
27313;SDS011;14800;48.174;9.798;2022-12-10T05:13:56;42.25;;;22.88;;
27313;SDS011;14800;48.174;9.798;2022-12-10T05:16:24;43.22;;;22.27;;
27313;SDS011;14800;48.174;9.798;2022-12-10T05:18:52;47.20;;;25.20;;
27313;SDS011;14800;48.174;9.798;2022-12-10T05:21:19;39.80;;;22.40;;
27313;SDS011;14800;48.174;9.798;2022-12-10T05:23:47;39.25;;;22.00;;
27313;SDS011;14800;48.174;9.798;2022-12-10T05:26:21;42.60;;;23.27;;
27313;SDS011;14800;48.174;9.798;2022-12-10T05:28:52;40.60;;;21.67;;
27313;SDS011;14800;48.174;9.798;2022-12-10T05:33:47;44.97;;;24.20;;
27313;SDS011;14800;48.174;9.798;2022-12-10T05:36:14;43.88;;;23.25;;
27313;SDS011;14800;48.174;9.798;2022-12-10T05:38:41;39.45;;;22.88;;
27313;SDS011;14800;48.174;9.798;2022-12-10T05:41:11;39.47;;;22.77;;
27313;SDS011;14800;48.174;9.798;2022-12-10T05:43:44;42.50;;;23.90;;
27313;SDS011;14800;48.174;9.798;2022-12-10T05:46:11;41.28;;;22.52;;
27313;SDS011;14800;48.174;9.798;2022-12-10T05:48:38;39.72;;;22.58;;
27313;SDS011;14800;48.174;9.798;2022-12-10T05:51:08;43.45;;;23.15;;
27313;SDS011;14800;48.174;9.798;2022-12-10T05:53:39;40.53;;;23.45;;
27313;SDS011;14800;48.174;9.798;2022-12-10T05:56:06;40.67;;;23.25;;
27313;SDS011;14800;48.174;9.798;2022-12-10T05:58:34;40.35;;;22.85;;
27313;SDS011;14800;48.174;9.798;2022-12-10T06:01:05;42.75;;;22.13;;
27313;SDS011;14800;48.174;9.798;2022-12-10T06:03:32;38.67;;;21.42;;
27313;SDS011;14800;48.174;9.798;2022-12-10T06:05:57;39.38;;;21.85;;
27313;SDS011;14800;48.174;9.798;2022-12-10T06:08:23;38.55;;;21.27;;
27313;SDS011;14800;48.174;9.798;2022-12-10T06:10:49;38.45;;;22.13;;
27313;SDS011;14800;48.174;9.798;2022-12-10T06:13:14;35.28;;;20.58;;
27313;SDS011;14800;48.174;9.798;2022-12-10T06:15:40;35.28;;;20.67;;
27313;SDS011;14800;48.174;9.798;2022-12-10T06:18:07;38.10;;;20.70;;
27313;SDS011;14800;48.174;9.798;2022-12-10T06:20:33;39.28;;;20.75;;
27313;SDS011;14800;48.174;9.798;2022-12-10T06:22:59;37.05;;;21.20;;
27313;SDS011;14800;48.174;9.798;2022-12-10T06:25:24;37.35;;;21.35;;
27313;SDS011;14800;48.174;9.798;2022-12-10T06:27:50;35.60;;;20.17;;
27313;SDS011;14800;48.174;9.798;2022-12-10T06:30:16;35.17;;;19.85;;
27313;SDS011;14800;48.174;9.798;2022-12-10T06:32:41;34.30;;;19.98;;
27313;SDS011;14800;48.174;9.798;2022-12-10T06:35:09;33.28;;;18.95;;
27313;SDS011;14800;48.174;9.798;2022-12-10T06:37:36;33.85;;;19.27;;
27313;SDS011;14800;48.174;9.798;2022-12-10T06:40:02;38.22;;;21.95;;
27313;SDS011;14800;48.174;9.798;2022-12-10T06:42:28;37.38;;;20.48;;
27313;SDS011;14800;48.174;9.798;2022-12-10T06:44:54;32.42;;;19.48;;
27313;SDS011;14800;48.174;9.798;2022-12-10T06:47:19;36.15;;;19.98;;
27313;SDS011;14800;48.174;9.798;2022-12-10T06:49:45;34.75;;;20.15;;
27313;SDS011;14800;48.174;9.798;2022-12-10T06:52:10;35.47;;;19.98;;
27313;SDS011;14800;48.174;9.798;2022-12-10T06:54:36;34.88;;;20.02;;
27313;SDS011;14800;48.174;9.798;2022-12-10T06:57:02;34.00;;;20.38;;
27313;SDS011;14800;48.174;9.798;2022-12-10T06:59:28;35.00;;;20.00;;
27313;SDS011;14800;48.174;9.798;2022-12-10T07:01:53;36.38;;;20.42;;
27313;SDS011;14800;48.174;9.798;2022-12-10T07:04:19;36.28;;;20.90;;
27313;SDS011;14800;48.174;9.798;2022-12-10T07:06:44;32.58;;;19.60;;
27313;SDS011;14800;48.174;9.798;2022-12-10T07:09:10;34.25;;;19.80;;
27313;SDS011;14800;48.174;9.798;2022-12-10T07:11:36;33.97;;;19.67;;
27313;SDS011;14800;48.174;9.798;2022-12-10T07:14:02;33.63;;;19.67;;
27313;SDS011;14800;48.174;9.798;2022-12-10T07:16:28;35.38;;;20.55;;
27313;SDS011;14800;48.174;9.798;2022-12-10T07:18:56;34.63;;;19.67;;
27313;SDS011;14800;48.174;9.798;2022-12-10T07:23:49;37.65;;;19.60;;
27313;SDS011;14800;48.174;9.798;2022-12-10T07:26:16;34.53;;;20.05;;
27313;SDS011;14800;48.174;9.798;2022-12-10T07:28:42;35.42;;;20.13;;
27313;SDS011;14800;48.174;9.798;2022-12-10T07:31:08;33.85;;;19.67;;
27313;SDS011;14800;48.174;9.798;2022-12-10T07:33:34;35.35;;;20.63;;
27313;SDS011;14800;48.174;9.798;2022-12-10T07:36:07;35.92;;;19.65;;
27313;SDS011;14800;48.174;9.798;2022-12-10T07:38:35;36.58;;;21.05;;
27313;SDS011;14800;48.174;9.798;2022-12-10T07:41:02;33.78;;;19.58;;
27313;SDS011;14800;48.174;9.798;2022-12-10T07:43:29;33.25;;;19.45;;
27313;SDS011;14800;48.174;9.798;2022-12-10T07:45:54;33.05;;;19.00;;
27313;SDS011;14800;48.174;9.798;2022-12-10T07:48:20;32.95;;;19.23;;
27313;SDS011;14800;48.174;9.798;2022-12-10T07:50:46;35.50;;;19.15;;
27313;SDS011;14800;48.174;9.798;2022-12-10T07:53:12;33.28;;;18.92;;
27313;SDS011;14800;48.174;9.798;2022-12-10T07:55:37;34.50;;;20.30;;
27313;SDS011;14800;48.174;9.798;2022-12-10T07:58:03;34.78;;;18.77;;
27313;SDS011;14800;48.174;9.798;2022-12-10T08:00:28;33.75;;;19.92;;
27313;SDS011;14800;48.174;9.798;2022-12-10T08:02:54;33.47;;;19.20;;
27313;SDS011;14800;48.174;9.798;2022-12-10T08:05:20;29.92;;;18.30;;
27313;SDS011;14800;48.174;9.798;2022-12-10T08:07:45;32.70;;;18.55;;
27313;SDS011;14800;48.174;9.798;2022-12-10T08:10:11;33.35;;;19.05;;
27313;SDS011;14800;48.174;9.798;2022-12-10T08:12:36;33.83;;;19.63;;
27313;SDS011;14800;48.174;9.798;2022-12-10T08:15:02;33.08;;;19.08;;
27313;SDS011;14800;48.174;9.798;2022-12-10T08:17:28;32.50;;;20.02;;
27313;SDS011;14800;48.174;9.798;2022-12-10T08:19:53;35.38;;;20.85;;
27313;SDS011;14800;48.174;9.798;2022-12-10T08:22:19;35.30;;;20.08;;
27313;SDS011;14800;48.174;9.798;2022-12-10T08:24:45;35.10;;;20.27;;
27313;SDS011;14800;48.174;9.798;2022-12-10T08:27:11;38.20;;;21.15;;
27313;SDS011;14800;48.174;9.798;2022-12-10T08:29:40;36.30;;;19.30;;
27313;SDS011;14800;48.174;9.798;2022-12-10T08:32:05;36.80;;;20.80;;
27313;SDS011;14800;48.174;9.798;2022-12-10T08:34:31;41.65;;;23.48;;
27313;SDS011;14800;48.174;9.798;2022-12-10T08:36:56;38.28;;;21.98;;
27313;SDS011;14800;48.174;9.798;2022-12-10T08:39:22;39.40;;;21.98;;
27313;SDS011;14800;48.174;9.798;2022-12-10T08:41:48;37.97;;;22.30;;
27313;SDS011;14800;48.174;9.798;2022-12-10T08:44:13;37.35;;;21.67;;
27313;SDS011;14800;48.174;9.798;2022-12-10T08:46:39;39.92;;;22.88;;
27313;SDS011;14800;48.174;9.798;2022-12-10T08:49:05;37.55;;;21.05;;
27313;SDS011;14800;48.174;9.798;2022-12-10T08:51:33;37.90;;;22.27;;
27313;SDS011;14800;48.174;9.798;2022-12-10T08:53:59;36.33;;;21.92;;
27313;SDS011;14800;48.174;9.798;2022-12-10T08:56:25;36.95;;;20.70;;
27313;SDS011;14800;48.174;9.798;2022-12-10T08:58:50;38.08;;;21.88;;
27313;SDS011;14800;48.174;9.798;2022-12-10T09:01:17;36.10;;;20.48;;
27313;SDS011;14800;48.174;9.798;2022-12-10T09:03:43;39.35;;;21.45;;
27313;SDS011;14800;48.174;9.798;2022-12-10T09:06:10;35.10;;;20.60;;
27313;SDS011;14800;48.174;9.798;2022-12-10T09:08:39;36.00;;;21.02;;
27313;SDS011;14800;48.174;9.798;2022-12-10T09:11:05;36.72;;;20.27;;
27313;SDS011;14800;48.174;9.798;2022-12-10T09:13:35;35.35;;;20.52;;
27313;SDS011;14800;48.174;9.798;2022-12-10T09:16:01;35.35;;;20.60;;
27313;SDS011;14800;48.174;9.798;2022-12-10T09:18:27;38.33;;;21.83;;
27313;SDS011;14800;48.174;9.798;2022-12-10T09:20:53;35.95;;;19.63;;
27313;SDS011;14800;48.174;9.798;2022-12-10T09:23:18;37.22;;;20.48;;
27313;SDS011;14800;48.174;9.798;2022-12-10T09:25:44;37.17;;;20.73;;
27313;SDS011;14800;48.174;9.798;2022-12-10T09:28:10;34.58;;;19.73;;
27313;SDS011;14800;48.174;9.798;2022-12-10T09:30:35;34.78;;;19.85;;
27313;SDS011;14800;48.174;9.798;2022-12-10T09:33:01;37.95;;;22.20;;
27313;SDS011;14800;48.174;9.798;2022-12-10T09:35:27;39.25;;;21.80;;
27313;SDS011;14800;48.174;9.798;2022-12-10T09:37:52;37.28;;;20.98;;
27313;SDS011;14800;48.174;9.798;2022-12-10T09:40:20;36.50;;;20.38;;
27313;SDS011;14800;48.174;9.798;2022-12-10T09:43:26;35.30;;;20.40;;
27313;SDS011;14800;48.174;9.798;2022-12-10T09:48:59;35.60;;;21.02;;
27313;SDS011;14800;48.174;9.798;2022-12-10T09:51:28;37.75;;;20.95;;
27313;SDS011;14800;48.174;9.798;2022-12-10T09:53:57;40.17;;;21.65;;
27313;SDS011;14800;48.174;9.798;2022-12-10T09:56:29;39.13;;;20.63;;
27313;SDS011;14800;48.174;9.798;2022-12-10T09:58:58;36.65;;;21.02;;
27313;SDS011;14800;48.174;9.798;2022-12-10T10:01:28;36.03;;;20.90;;
27313;SDS011;14800;48.174;9.798;2022-12-10T10:03:56;36.20;;;20.85;;
27313;SDS011;14800;48.174;9.798;2022-12-10T10:06:21;35.28;;;20.35;;
27313;SDS011;14800;48.174;9.798;2022-12-10T10:08:50;36.95;;;21.50;;
27313;SDS011;14800;48.174;9.798;2022-12-10T10:11:20;36.05;;;20.92;;
27313;SDS011;14800;48.174;9.798;2022-12-10T10:13:53;41.67;;;22.52;;
27313;SDS011;14800;48.174;9.798;2022-12-10T10:16:23;37.17;;;21.88;;
27313;SDS011;14800;48.174;9.798;2022-12-10T10:18:58;34.83;;;20.88;;
27313;SDS011;14800;48.174;9.798;2022-12-10T10:21:35;36.38;;;20.15;;
27313;SDS011;14800;48.174;9.798;2022-12-10T10:24:04;32.50;;;20.40;;
27313;SDS011;14800;48.174;9.798;2022-12-10T10:26:32;35.90;;;19.48;;
27313;SDS011;14800;48.174;9.798;2022-12-10T10:29:02;37.17;;;21.42;;
27313;SDS011;14800;48.174;9.798;2022-12-10T10:31:32;34.25;;;19.38;;
27313;SDS011;14800;48.174;9.798;2022-12-10T10:34:00;34.75;;;19.60;;
27313;SDS011;14800;48.174;9.798;2022-12-10T10:36:31;36.45;;;20.27;;
27313;SDS011;14800;48.174;9.798;2022-12-10T10:41:45;32.40;;;19.23;;
27313;SDS011;14800;48.174;9.798;2022-12-10T10:44:16;36.67;;;21.13;;
27313;SDS011;14800;48.174;9.798;2022-12-10T10:46:46;40.92;;;22.50;;
27313;SDS011;14800;48.174;9.798;2022-12-10T10:49:13;35.92;;;21.40;;
27313;SDS011;14800;48.174;9.798;2022-12-10T10:51:50;29.15;;;18.27;;
27313;SDS011;14800;48.174;9.798;2022-12-10T10:57:04;27.67;;;16.50;;
27313;SDS011;14800;48.174;9.798;2022-12-10T10:59:37;31.38;;;17.35;;
27313;SDS011;14800;48.174;9.798;2022-12-10T11:04:48;31.05;;;18.50;;
27313;SDS011;14800;48.174;9.798;2022-12-10T11:07:26;29.75;;;17.25;;
27313;SDS011;14800;48.174;9.798;2022-12-10T11:09:59;34.30;;;18.65;;
27313;SDS011;14800;48.174;9.798;2022-12-10T11:12:33;33.22;;;19.08;;
27313;SDS011;14800;48.174;9.798;2022-12-10T11:17:51;29.95;;;18.60;;
27313;SDS011;14800;48.174;9.798;2022-12-10T11:25:44;29.20;;;18.40;;
27313;SDS011;14800;48.174;9.798;2022-12-10T11:30:51;27.63;;;16.45;;
27313;SDS011;14800;48.174;9.798;2022-12-10T11:33:38;27.23;;;15.88;;
27313;SDS011;14800;48.174;9.798;2022-12-10T11:36:19;25.77;;;15.93;;
27313;SDS011;14800;48.174;9.798;2022-12-10T11:38:54;18.27;;;10.83;;
27313;SDS011;14800;48.174;9.798;2022-12-10T11:46:31;22.17;;;13.30;;
27313;SDS011;14800;48.174;9.798;2022-12-10T11:59:36;24.17;;;14.68;;
27313;SDS011;14800;48.174;9.798;2022-12-10T12:10:23;20.95;;;13.02;;
27313;SDS011;14800;48.174;9.798;2022-12-10T12:13:12;24.98;;;14.82;;
27313;SDS011;14800;48.174;9.798;2022-12-10T12:15:50;26.05;;;14.63;;
27313;SDS011;14800;48.174;9.798;2022-12-10T12:18:30;22.83;;;13.98;;
27313;SDS011;14800;48.174;9.798;2022-12-10T12:21:10;22.35;;;12.80;;
27313;SDS011;14800;48.174;9.798;2022-12-10T12:26:40;18.05;;;11.90;;
27313;SDS011;14800;48.174;9.798;2022-12-10T12:31:49;16.35;;;10.63;;
27313;SDS011;14800;48.174;9.798;2022-12-10T12:34:24;15.85;;;10.07;;
27313;SDS011;14800;48.174;9.798;2022-12-10T12:36:51;14.60;;;9.23;;
27313;SDS011;14800;48.174;9.798;2022-12-10T12:53:14;16.42;;;10.50;;
27313;SDS011;14800;48.174;9.798;2022-12-10T12:56:02;18.73;;;11.20;;
27313;SDS011;14800;48.174;9.798;2022-12-10T12:58:46;17.83;;;11.05;;
27313;SDS011;14800;48.174;9.798;2022-12-10T13:04:00;21.98;;;12.50;;
27313;SDS011;14800;48.174;9.798;2022-12-10T13:06:29;20.98;;;13.48;;
27313;SDS011;14800;48.174;9.798;2022-12-10T13:11:37;20.35;;;12.60;;
27313;SDS011;14800;48.174;9.798;2022-12-10T13:14:31;20.67;;;12.43;;
27313;SDS011;14800;48.174;9.798;2022-12-10T13:17:01;18.92;;;12.60;;
27313;SDS011;14800;48.174;9.798;2022-12-10T13:19:33;23.08;;;13.15;;
27313;SDS011;14800;48.174;9.798;2022-12-10T13:22:12;19.88;;;11.77;;
27313;SDS011;14800;48.174;9.798;2022-12-10T13:25:05;17.90;;;11.20;;
27313;SDS011;14800;48.174;9.798;2022-12-10T13:27:37;17.40;;;11.27;;
27313;SDS011;14800;48.174;9.798;2022-12-10T13:48:49;19.95;;;12.68;;
27313;SDS011;14800;48.174;9.798;2022-12-10T13:51:39;21.40;;;13.63;;
27313;SDS011;14800;48.174;9.798;2022-12-10T14:02:53;19.13;;;12.35;;
27313;SDS011;14800;48.174;9.798;2022-12-10T14:05:31;22.48;;;13.45;;
27313;SDS011;14800;48.174;9.798;2022-12-10T14:07:59;25.42;;;14.30;;
27313;SDS011;14800;48.174;9.798;2022-12-10T14:10:31;24.48;;;14.48;;
27313;SDS011;14800;48.174;9.798;2022-12-10T14:13:00;24.08;;;13.85;;
27313;SDS011;14800;48.174;9.798;2022-12-10T14:15:28;21.60;;;13.88;;
27313;SDS011;14800;48.174;9.798;2022-12-10T14:17:58;24.80;;;14.77;;
27313;SDS011;14800;48.174;9.798;2022-12-10T14:20:32;25.85;;;15.35;;
27313;SDS011;14800;48.174;9.798;2022-12-10T14:23:04;24.08;;;14.80;;
27313;SDS011;14800;48.174;9.798;2022-12-10T14:26:10;26.70;;;15.30;;
27313;SDS011;14800;48.174;9.798;2022-12-10T14:28:42;26.08;;;15.75;;
27313;SDS011;14800;48.174;9.798;2022-12-10T14:31:17;24.45;;;14.38;;
27313;SDS011;14800;48.174;9.798;2022-12-10T14:33:46;25.48;;;15.32;;
27313;SDS011;14800;48.174;9.798;2022-12-10T14:36:15;24.92;;;14.95;;
27313;SDS011;14800;48.174;9.798;2022-12-10T14:38:45;26.55;;;15.85;;
27313;SDS011;14800;48.174;9.798;2022-12-10T14:41:12;27.38;;;15.45;;
27313;SDS011;14800;48.174;9.798;2022-12-10T14:43:42;27.67;;;16.33;;
27313;SDS011;14800;48.174;9.798;2022-12-10T14:46:12;29.67;;;16.92;;
27313;SDS011;14800;48.174;9.798;2022-12-10T14:48:42;29.83;;;15.85;;
27313;SDS011;14800;48.174;9.798;2022-12-10T14:51:12;26.67;;;16.23;;
27313;SDS011;14800;48.174;9.798;2022-12-10T14:53:40;24.75;;;14.93;;
27313;SDS011;14800;48.174;9.798;2022-12-10T14:56:06;25.27;;;14.85;;
27313;SDS011;14800;48.174;9.798;2022-12-10T15:01:09;31.65;;;16.65;;
27313;SDS011;14800;48.174;9.798;2022-12-10T15:03:41;29.60;;;16.52;;
27313;SDS011;14800;48.174;9.798;2022-12-10T15:06:12;33.58;;;18.30;;
27313;SDS011;14800;48.174;9.798;2022-12-10T15:08:41;30.90;;;16.88;;
27313;SDS011;14800;48.174;9.798;2022-12-10T15:11:10;31.58;;;16.48;;
27313;SDS011;14800;48.174;9.798;2022-12-10T15:13:43;25.85;;;14.77;;
27313;SDS011;14800;48.174;9.798;2022-12-10T15:16:16;27.05;;;14.63;;
27313;SDS011;14800;48.174;9.798;2022-12-10T15:18:43;24.65;;;14.43;;
27313;SDS011;14800;48.174;9.798;2022-12-10T15:21:15;22.25;;;13.95;;
27313;SDS011;14800;48.174;9.798;2022-12-10T15:23:48;21.33;;;12.85;;
27313;SDS011;14800;48.174;9.798;2022-12-10T15:26:17;20.95;;;12.55;;
27313;SDS011;14800;48.174;9.798;2022-12-10T15:28:43;22.35;;;13.20;;
27313;SDS011;14800;48.174;9.798;2022-12-10T15:33:42;17.70;;;11.10;;
27313;SDS011;14800;48.174;9.798;2022-12-10T15:36:38;17.77;;;11.30;;
27313;SDS011;14800;48.174;9.798;2022-12-10T15:41:50;15.95;;;10.07;;
27313;SDS011;14800;48.174;9.798;2022-12-10T15:49:39;18.92;;;11.20;;
27313;SDS011;14800;48.174;9.798;2022-12-10T15:52:05;19.23;;;11.93;;
27313;SDS011;14800;48.174;9.798;2022-12-10T15:54:32;18.60;;;11.13;;
27313;SDS011;14800;48.174;9.798;2022-12-10T15:57:02;16.42;;;10.70;;
27313;SDS011;14800;48.174;9.798;2022-12-10T15:59:43;18.88;;;11.23;;
27313;SDS011;14800;48.174;9.798;2022-12-10T16:02:23;24.73;;;13.48;;
27313;SDS011;14800;48.174;9.798;2022-12-10T16:05:00;27.88;;;12.50;;
27313;SDS011;14800;48.174;9.798;2022-12-10T16:07:25;17.13;;;9.90;;
27313;SDS011;14800;48.174;9.798;2022-12-10T16:09:51;17.85;;;10.60;;
27313;SDS011;14800;48.174;9.798;2022-12-10T16:12:17;15.65;;;9.38;;
27313;SDS011;14800;48.174;9.798;2022-12-10T16:14:48;17.88;;;11.55;;
27313;SDS011;14800;48.174;9.798;2022-12-10T16:17:16;19.52;;;12.55;;
27313;SDS011;14800;48.174;9.798;2022-12-10T16:19:42;20.40;;;13.13;;
27313;SDS011;14800;48.174;9.798;2022-12-10T16:22:08;23.08;;;14.00;;
27313;SDS011;14800;48.174;9.798;2022-12-10T16:24:34;23.25;;;14.98;;
27313;SDS011;14800;48.174;9.798;2022-12-10T16:26:59;22.13;;;14.77;;
27313;SDS011;14800;48.174;9.798;2022-12-10T16:29:25;25.70;;;14.77;;
27313;SDS011;14800;48.174;9.798;2022-12-10T16:31:51;22.08;;;13.27;;
27313;SDS011;14800;48.174;9.798;2022-12-10T16:34:16;24.90;;;15.43;;
27313;SDS011;14800;48.174;9.798;2022-12-10T16:36:42;26.15;;;15.85;;
27313;SDS011;14800;48.174;9.798;2022-12-10T16:39:07;34.92;;;21.90;;
27313;SDS011;14800;48.174;9.798;2022-12-10T16:41:34;26.10;;;17.48;;
27313;SDS011;14800;48.174;9.798;2022-12-10T16:43:59;25.33;;;15.38;;
27313;SDS011;14800;48.174;9.798;2022-12-10T16:46:25;23.70;;;15.68;;